Terminal Aerodrome Forecast
Issued by NWS

Home | Current Version | Previous Version | Text Only | Print | Product List | Glossary On
Versions: 1 2 3 4 5 6 7 8 9 10 11 12 13 14 15 16 17 18 19 20 21 22 23 24 25 26 27 28 29 30 31 32 33 34 35 36 37 38 39 40 41 42
834
FTUS45 KBOU 281727
TAFAPA
TAF
KAPA 281727Z 2818/0118 09008KT P6SM VCSH BKN035 OVC060
      TEMPO 2819/2820 -SHSN BKN025
     FM282000 06012KT 3SM -SHSN SCT012 OVC020
      TEMPO 2822/0101 3/4SM -SHSN BKN009
     FM010100 12006KT P6SM BKN030 BKN070
     FM010300 18007KT P6SM FEW080 SCT140
     FM010500 26012KT P6SM SCT220
     FM011200 23011KT P6SM SCT220=

USA.gov is the U.S. government's official web portal to all federal, state and local government web resources and services.